createdAt,value
2019-03-11T00:00:02.190Z,10.95
2019-03-11T00:02:30.667Z,13.88
2019-03-11T00:04:57.123Z,11.95
2019-03-11T00:07:23.591Z,9.85
2019-03-11T00:09:50.020Z,11.05
2019-03-11T00:12:16.513Z,10.80
2019-03-11T00:14:42.992Z,10.38
2019-03-11T00:17:09.466Z,13.40
2019-03-11T00:19:35.935Z,11.57
2019-03-11T00:22:02.705Z,9.88
2019-03-11T00:24:29.130Z,9.93
2019-03-11T00:26:55.577Z,9.43
2019-03-11T00:29:22.023Z,9.20
2019-03-11T00:31:48.481Z,10.98
2019-03-11T00:34:14.947Z,12.40
2019-03-11T00:36:41.407Z,10.18
2019-03-11T00:39:07.844Z,9.60
2019-03-11T00:41:34.577Z,14.70
2019-03-11T00:44:01.048Z,10.60
2019-03-11T00:46:27.478Z,10.48
2019-03-11T00:48:53.921Z,8.30
2019-03-11T00:51:20.379Z,10.53
2019-03-11T00:53:46.830Z,11.15
2019-03-11T00:56:13.248Z,14.98
2019-03-11T00:58:39.719Z,13.90
2019-03-11T01:01:06.306Z,12.47
2019-03-11T01:03:32.873Z,11.80
2019-03-11T01:05:59.344Z,15.88
2019-03-11T01:08:25.991Z,12.78
2019-03-11T01:10:52.551Z,10.28
2019-03-11T01:13:19.013Z,12.88
2019-03-11T01:15:45.540Z,13.60
2019-03-11T01:18:12.011Z,10.98
2019-03-11T01:20:38.463Z,8.13
2019-03-11T01:23:04.887Z,8.65
2019-03-11T01:25:31.425Z,11.05
2019-03-11T01:27:57.885Z,9.05
2019-03-11T01:30:24.458Z,7.87
2019-03-11T01:32:51.036Z,7.22
2019-03-11T01:35:17.456Z,7.05
2019-03-11T01:37:44.001Z,10.08
2019-03-11T01:40:16.353Z,10.63
2019-03-11T01:42:43.002Z,8.10
2019-03-11T01:45:14.299Z,9.93
2019-03-11T01:47:40.877Z,10.93
2019-03-11T01:50:08.632Z,11.53
2019-03-11T01:52:35.068Z,7.97
2019-03-11T01:55:01.712Z,6.83
2019-03-11T01:57:28.178Z,9.90
2019-03-11T01:59:54.605Z,9.60
2019-03-11T02:02:21.098Z,10.90
2019-03-11T02:04:47.585Z,10.50
2019-03-11T02:07:14.029Z,11.40
2019-03-11T02:09:40.482Z,11.38
2019-03-11T02:12:06.936Z,10.38
2019-03-11T02:14:33.410Z,12.10
2019-03-11T02:16:59.842Z,11.35
2019-03-11T02:19:26.320Z,15.15
2019-03-11T02:21:52.750Z,14.38
2019-03-11T02:24:19.198Z,13.40
2019-03-11T02:26:45.638Z,16.12
2019-03-11T02:29:12.080Z,12.88
2019-03-11T02:31:38.516Z,13.93
2019-03-11T02:34:04.965Z,11.08
2019-03-11T02:36:31.519Z,14.78
2019-03-11T02:38:57.961Z,12.40
2019-03-11T02:41:24.404Z,14.40
2019-03-11T02:43:50.841Z,14.98
2019-03-11T02:46:17.291Z,12.23
2019-03-11T02:48:43.740Z,21.73
2019-03-11T02:51:10.249Z,17.12
2019-03-11T02:53:36.717Z,11.88
2019-03-11T02:56:04.474Z,14.83
2019-03-11T02:58:30.909Z,16.77
2019-03-11T03:00:59.278Z,12.93
2019-03-11T03:03:39.990Z,12.30
2019-03-11T03:06:08.429Z,11.08
2019-03-11T03:08:34.898Z,11.80
2019-03-11T03:11:01.375Z,11.83
2019-03-11T03:13:29.008Z,12.78
2019-03-11T03:15:55.452Z,13.03
2019-03-11T03:18:22.030Z,14.50
2019-03-11T03:20:48.466Z,12.93
2019-03-11T03:23:15.156Z,14.45
2019-03-11T03:25:41.599Z,13.28
2019-03-11T03:28:08.176Z,11.88
2019-03-11T03:30:34.699Z,12.60
2019-03-11T03:33:01.167Z,14.47
2019-03-11T03:35:27.590Z,14.90
2019-03-11T03:37:54.033Z,12.07
2019-03-11T03:40:20.493Z,12.03
2019-03-11T03:42:47.117Z,12.70
2019-03-11T03:45:25.988Z,13.68
2019-03-11T03:47:52.639Z,11.25
2019-03-11T03:50:20.877Z,12.75
2019-03-11T03:52:48.445Z,12.80
2019-03-11T03:55:15.032Z,15.35
2019-03-11T03:57:41.483Z,12.68
2019-03-11T04:00:09.551Z,11.93
2019-03-11T04:02:36.001Z,12.55
2019-03-11T04:05:05.190Z,13.83
2019-03-11T04:07:31.655Z,11.03
2019-03-11T04:09:58.181Z,9.35
2019-03-11T04:12:25.733Z,12.53
2019-03-11T04:14:52.282Z,11.78
2019-03-11T04:17:18.858Z,11.53
2019-03-11T04:19:45.511Z,11.85
2019-03-11T04:22:12.094Z,10.65
2019-03-11T04:24:38.711Z,13.88
2019-03-11T04:27:09.006Z,13.98
2019-03-11T04:29:35.549Z,11.43
2019-03-11T04:32:02.018Z,12.30
2019-03-11T04:34:28.472Z,13.05
2019-03-11T04:36:54.926Z,11.55
2019-03-11T04:39:21.373Z,12.85
2019-03-11T04:41:47.819Z,13.30
2019-03-11T04:44:14.271Z,12.30
2019-03-11T04:46:40.721Z,11.00
2019-03-11T04:49:07.174Z,8.83
2019-03-11T04:51:33.619Z,11.93
2019-03-11T04:54:00.063Z,10.78
2019-03-11T04:56:26.501Z,14.80
2019-03-11T04:58:52.987Z,11.75
2019-03-11T05:01:19.437Z,13.15
2019-03-11T05:03:47.122Z,13.85
2019-03-11T05:06:13.596Z,15.63
2019-03-11T05:08:40.042Z,15.63
2019-03-11T05:11:06.483Z,15.65
2019-03-11T05:13:33.021Z,14.93
2019-03-11T05:15:59.491Z,12.63
2019-03-11T05:18:25.963Z,11.85
2019-03-11T05:20:53.810Z,11.25
2019-03-11T05:23:20.229Z,11.33
2019-03-11T05:25:46.687Z,10.32
2019-03-11T05:28:13.134Z,12.65
2019-03-11T05:30:41.520Z,16.20
2019-03-11T05:33:07.973Z,18.95
2019-03-11T05:35:34.427Z,16.37
2019-03-11T05:38:00.858Z,14.38
2019-03-11T05:40:27.301Z,13.13
2019-03-11T05:42:53.732Z,13.08
2019-03-11T05:45:20.394Z,15.55
2019-03-11T05:47:46.946Z,12.18
2019-03-11T05:50:15.712Z,21.02
2019-03-11T05:52:42.237Z,18.80
2019-03-11T05:55:10.195Z,32.42
2019-03-11T05:57:36.625Z,26.02
2019-03-11T06:00:16.498Z,20.30
2019-03-11T06:02:43.059Z,18.77
2019-03-11T06:05:09.702Z,15.50
2019-03-11T06:07:36.304Z,17.98
2019-03-11T06:10:05.857Z,16.12
2019-03-11T06:12:32.299Z,15.70
2019-03-11T06:14:58.761Z,14.55
2019-03-11T06:17:25.224Z,21.90
2019-03-11T06:19:54.695Z,16.62
2019-03-11T06:22:22.744Z,14.38
2019-03-11T06:24:49.213Z,14.70
2019-03-11T06:27:15.633Z,21.23
2019-03-11T06:29:42.101Z,15.93
2019-03-11T06:32:08.756Z,16.42
2019-03-11T06:34:35.261Z,21.10
2019-03-11T06:37:01.718Z,20.12
2019-03-11T06:39:28.177Z,19.50
2019-03-11T06:41:54.610Z,16.55
2019-03-11T06:44:21.066Z,19.32
2019-03-11T06:46:47.640Z,16.73
2019-03-11T06:49:14.103Z,16.02
2019-03-11T06:51:40.561Z,17.82
2019-03-11T06:54:07.028Z,17.00
2019-03-11T06:56:33.472Z,16.30
2019-03-11T06:58:59.910Z,22.02
2019-03-11T07:01:26.348Z,21.97
2019-03-11T07:03:52.780Z,18.00
2019-03-11T07:06:19.258Z,20.75
2019-03-11T07:08:45.704Z,24.85
2019-03-11T07:11:12.129Z,24.30
2019-03-11T07:13:38.600Z,19.62
2019-03-11T07:16:05.254Z,18.50
2019-03-11T07:18:31.760Z,23.18
2019-03-11T07:20:58.209Z,16.05
2019-03-11T07:23:24.654Z,17.90
2019-03-11T07:25:51.091Z,19.65
2019-03-11T07:28:17.545Z,18.60
2019-03-11T07:30:44.002Z,21.23
2019-03-11T07:33:10.439Z,106.83
2019-03-11T07:35:36.869Z,104.67
2019-03-11T07:38:03.466Z,68.00
2019-03-11T07:40:36.654Z,55.43
2019-03-11T07:43:03.097Z,23.12
2019-03-11T07:45:29.542Z,14.30
2019-03-11T07:47:55.970Z,8.85
2019-03-11T07:50:22.409Z,6.33
2019-03-11T07:52:48.998Z,5.30
2019-03-11T07:55:15.433Z,7.05
2019-03-11T07:57:42.101Z,9.58
2019-03-11T08:00:14.307Z,14.35
2019-03-11T08:02:40.782Z,15.50
2019-03-11T08:05:08.433Z,21.35
2019-03-11T08:07:34.902Z,19.60
2019-03-11T08:10:01.500Z,11.60
2019-03-11T08:12:27.982Z,40.67
2019-03-11T08:14:54.431Z,29.25
2019-03-11T08:17:20.870Z,22.93
2019-03-11T08:19:47.319Z,15.78
2019-03-11T08:22:13.871Z,8.23
2019-03-11T08:24:40.340Z,10.72
2019-03-11T08:27:06.792Z,13.15
2019-03-11T08:29:33.265Z,4.22
2019-03-11T08:31:59.699Z,5.58
2019-03-11T08:34:26.154Z,4.83
2019-03-11T08:36:52.611Z,4.30
2019-03-11T08:39:19.046Z,15.68
2019-03-11T08:41:45.852Z,8.68
2019-03-11T08:44:13.406Z,6.75
2019-03-11T08:46:41.040Z,8.13
2019-03-11T08:49:07.472Z,6.30
2019-03-11T08:51:35.151Z,6.10
2019-03-11T08:54:01.576Z,5.87
2019-03-11T08:56:28.008Z,6.10
2019-03-11T08:58:54.465Z,13.45
2019-03-11T09:01:20.905Z,6.00
2019-03-11T09:03:48.036Z,7.30
2019-03-11T09:06:14.730Z,4.35
2019-03-11T09:08:41.165Z,3.70
2019-03-11T09:11:08.484Z,4.00
2019-03-11T09:13:34.997Z,4.53
2019-03-11T09:16:01.587Z,6.95
2019-03-11T09:18:27.960Z,4.00
2019-03-11T09:20:54.503Z,3.50
2019-03-11T09:23:20.930Z,4.35
2019-03-11T09:25:47.473Z,4.58
2019-03-11T09:28:15.141Z,4.15
2019-03-11T09:30:41.754Z,2.65
2019-03-11T09:33:08.616Z,2.15
2019-03-11T09:35:35.273Z,2.75
2019-03-11T09:38:03.834Z,3.15
2019-03-11T09:40:30.194Z,3.02
2019-03-11T09:42:56.737Z,2.33
2019-03-11T09:45:24.490Z,3.33
2019-03-11T09:47:51.280Z,2.05
2019-03-11T09:50:17.834Z,3.05
2019-03-11T09:52:45.451Z,3.52
2019-03-11T09:55:14.404Z,2.67
2019-03-11T09:57:41.062Z,4.47
2019-03-11T10:00:14.531Z,2.62
2019-03-11T10:02:51.500Z,4.85
2019-03-11T10:05:09.554Z,4.50
2019-03-11T10:07:37.199Z,5.60
2019-03-11T10:10:12.478Z,2.55
2019-03-11T10:12:39.037Z,1.82
2019-03-11T10:15:09.298Z,3.15
2019-03-11T10:17:35.761Z,3.92
2019-03-11T10:20:04.811Z,3.15
2019-03-11T10:22:31.249Z,4.65
2019-03-11T10:24:57.676Z,2.65
2019-03-11T10:27:24.146Z,3.70
2019-03-11T10:29:50.608Z,4.87
2019-03-11T10:32:17.163Z,4.37
2019-03-11T10:34:43.585Z,3.45
2019-03-11T10:37:10.036Z,3.33
2019-03-11T10:39:36.490Z,3.00
2019-03-11T10:42:03.166Z,6.20
2019-03-11T10:44:29.634Z,2.05
2019-03-11T10:46:56.305Z,2.50
2019-03-11T10:49:22.789Z,3.90
2019-03-11T10:51:49.209Z,3.37
2019-03-11T10:54:15.661Z,4.58
2019-03-11T10:56:42.185Z,2.40
2019-03-11T10:59:08.647Z,2.17
2019-03-11T11:01:35.103Z,2.87
2019-03-11T11:04:01.553Z,2.37
2019-03-11T11:06:28.000Z,2.45
2019-03-11T11:08:54.470Z,2.33
2019-03-11T11:11:20.881Z,2.65
2019-03-11T11:13:47.391Z,1.72
2019-03-11T11:16:13.846Z,3.62
2019-03-11T11:18:40.287Z,3.45
2019-03-11T11:21:06.888Z,3.12
2019-03-11T11:23:33.334Z,5.37
2019-03-11T11:25:59.784Z,4.25
2019-03-11T11:28:26.333Z,4.03
2019-03-11T11:30:52.790Z,3.77
2019-03-11T11:33:19.218Z,3.30
2019-03-11T11:35:45.769Z,3.50
2019-03-11T11:38:12.213Z,4.72
2019-03-11T11:40:38.792Z,3.75
2019-03-11T11:43:05.254Z,3.40
2019-03-11T11:45:32.095Z,3.40
2019-03-11T11:47:58.727Z,3.77
2019-03-11T11:50:25.595Z,3.10
2019-03-11T11:52:52.262Z,2.98
2019-03-11T11:55:20.193Z,4.35
2019-03-11T11:57:47.027Z,3.35
2019-03-11T12:00:35.419Z,5.22
2019-03-11T12:03:03.460Z,4.25
2019-03-11T12:05:30.008Z,4.20
2019-03-11T12:07:56.471Z,3.87
2019-03-11T12:10:29.747Z,4.42
2019-03-11T12:12:57.402Z,4.83
2019-03-11T12:15:24.037Z,3.77
2019-03-11T12:17:50.578Z,5.08
2019-03-11T12:20:22.627Z,3.55
2019-03-11T12:22:49.258Z,3.47
2019-03-11T12:25:15.900Z,3.50
2019-03-11T12:27:53.110Z,4.35
2019-03-11T12:30:14.759Z,4.55
2019-03-11T12:32:41.419Z,4.03
2019-03-11T12:35:09.590Z,3.08
2019-03-11T12:37:36.117Z,3.02
2019-03-11T12:40:04.972Z,4.35
2019-03-11T12:42:31.726Z,4.70
2019-03-11T12:44:58.163Z,3.47
2019-03-11T12:47:24.616Z,5.30
2019-03-11T12:49:51.071Z,2.47
2019-03-11T12:52:17.550Z,6.37
2019-03-11T12:54:43.992Z,2.02
2019-03-11T12:57:10.470Z,2.58
2019-03-11T12:59:40.760Z,3.45
2019-03-11T13:02:05.145Z,2.45
2019-03-11T13:04:31.597Z,4.30
2019-03-11T13:06:58.038Z,7.87
2019-03-11T13:09:24.483Z,5.50
2019-03-11T13:11:50.926Z,6.62
2019-03-11T13:14:17.394Z,9.48
2019-03-11T13:16:43.885Z,5.47
2019-03-11T13:19:13.402Z,4.10
2019-03-11T13:21:38.691Z,2.98
2019-03-11T13:24:05.334Z,2.42
2019-03-11T13:26:32.003Z,2.37
2019-03-11T13:28:58.505Z,2.22
2019-03-11T13:31:25.096Z,4.62
2019-03-11T13:33:52.419Z,2.12
2019-03-11T13:36:18.875Z,2.83
2019-03-11T13:38:45.339Z,2.52
2019-03-11T13:41:11.899Z,2.70
2019-03-11T13:43:38.421Z,2.92
2019-03-11T13:46:05.086Z,5.87
2019-03-11T13:48:31.534Z,5.40
2019-03-11T13:50:57.992Z,2.52
2019-03-11T13:53:24.701Z,2.95
2019-03-11T13:55:51.134Z,1.90
2019-03-11T13:58:17.759Z,1.72
2019-03-11T14:00:44.237Z,1.92
2019-03-11T14:03:10.789Z,3.25
2019-03-11T14:05:37.240Z,3.33
2019-03-11T14:08:03.810Z,4.40
2019-03-11T14:10:30.362Z,3.17
2019-03-11T14:12:56.984Z,3.30
2019-03-11T14:15:23.559Z,2.98
2019-03-11T14:17:50.041Z,3.45
2019-03-11T14:20:17.319Z,2.55
2019-03-11T14:22:43.984Z,2.30
2019-03-11T14:25:11.930Z,3.52
2019-03-11T14:27:38.682Z,4.53
2019-03-11T14:30:17.080Z,4.37
2019-03-11T14:32:43.754Z,2.02
2019-03-11T14:35:11.814Z,2.02
2019-03-11T14:37:39.378Z,1.90
2019-03-11T14:40:19.371Z,2.20
2019-03-11T14:42:45.834Z,2.65
2019-03-11T14:45:17.527Z,2.33
2019-03-11T14:47:43.992Z,6.70
2019-03-11T14:50:13.365Z,3.42
2019-03-11T14:52:40.200Z,1.62
2019-03-11T14:55:08.457Z,2.50
2019-03-11T14:57:35.015Z,1.95
2019-03-11T15:00:02.568Z,2.30
2019-03-11T15:02:29.122Z,3.12
2019-03-11T15:04:55.622Z,3.35
2019-03-11T15:07:22.059Z,3.35
2019-03-11T15:09:51.583Z,1.82
2019-03-11T15:12:16.803Z,2.40
2019-03-11T15:14:43.269Z,2.58
2019-03-11T15:17:09.841Z,10.10
2019-03-11T15:19:36.454Z,2.27
2019-03-11T15:22:03.197Z,1.72
2019-03-11T15:24:29.675Z,1.15
2019-03-11T15:26:56.239Z,1.80
2019-03-11T15:29:22.818Z,1.50
2019-03-11T15:31:49.299Z,1.22
2019-03-11T15:34:15.796Z,1.00
2019-03-11T15:36:42.264Z,1.05
2019-03-11T15:39:08.913Z,1.45
2019-03-11T15:41:35.782Z,0.60
2019-03-11T15:44:02.234Z,1.12
2019-03-11T15:46:38.630Z,1.20
2019-03-11T15:48:56.952Z,1.25
2019-03-11T15:51:23.395Z,1.30
2019-03-11T15:53:49.838Z,3.47
2019-03-11T15:56:16.335Z,1.67
2019-03-11T15:58:42.763Z,1.57
2019-03-11T16:01:10.412Z,1.45
2019-03-11T16:03:38.819Z,7.15
2019-03-11T16:06:12.658Z,6.53
2019-03-11T16:08:39.256Z,6.35
2019-03-11T16:11:05.702Z,9.98
2019-03-11T16:13:32.166Z,11.85
2019-03-11T16:15:58.631Z,5.25
2019-03-11T16:18:25.107Z,4.47
2019-03-11T16:20:51.572Z,4.72
2019-03-11T16:23:18.170Z,9.63
2019-03-11T16:25:44.591Z,6.37
2019-03-11T16:28:11.134Z,5.60
2019-03-11T16:30:38.014Z,4.37
2019-03-11T16:33:04.681Z,1.40
2019-03-11T16:35:32.694Z,2.22
2019-03-11T16:37:59.122Z,1.60
2019-03-11T16:40:25.833Z,2.20
2019-03-11T16:42:52.499Z,1.50
2019-03-11T16:45:19.591Z,1.98
2019-03-11T16:47:47.141Z,2.95
2019-03-11T16:50:15.987Z,2.42
2019-03-11T16:52:42.612Z,3.87
2019-03-11T16:55:11.878Z,2.90
2019-03-11T16:57:38.327Z,2.00
2019-03-11T17:00:08.802Z,2.15
2019-03-11T17:02:35.867Z,5.72
2019-03-11T17:05:13.932Z,7.65
2019-03-11T17:07:40.518Z,7.08
2019-03-11T17:10:10.262Z,5.03
2019-03-11T17:12:40.191Z,3.80
2019-03-11T17:15:10.436Z,5.12
2019-03-11T17:17:38.460Z,8.28
2019-03-11T17:20:12.159Z,11.60
2019-03-11T17:22:38.937Z,7.80
2019-03-11T17:25:08.125Z,8.98
2019-03-11T17:27:34.793Z,4.22
2019-03-11T17:30:01.318Z,6.70
2019-03-11T17:32:28.163Z,4.47
2019-03-11T17:34:54.773Z,21.90
2019-03-11T17:37:21.269Z,6.62
2019-03-11T17:39:49.081Z,4.92
2019-03-11T17:42:17.598Z,6.00
2019-03-11T17:44:44.436Z,3.87
2019-03-11T17:47:35.140Z,4.97
2019-03-11T17:50:03.391Z,6.22
2019-03-11T17:52:31.583Z,4.78
2019-03-11T17:54:59.558Z,6.22
2019-03-11T17:57:26.441Z,7.35
2019-03-11T17:59:53.136Z,9.08
2019-03-11T18:02:20.034Z,8.85
2019-03-11T18:04:46.800Z,14.93
2019-03-11T18:07:13.374Z,16.15
2019-03-11T18:09:40.136Z,7.12
2019-03-11T18:12:06.924Z,6.62
2019-03-11T18:14:33.552Z,4.55
2019-03-11T18:17:00.430Z,5.15
2019-03-11T18:19:26.854Z,3.80
2019-03-11T18:21:53.303Z,6.33
2019-03-11T18:24:19.918Z,5.90
2019-03-11T18:26:46.907Z,6.20
2019-03-11T18:29:14.440Z,6.58
2019-03-11T18:31:42.187Z,11.65
2019-03-11T18:34:08.747Z,21.00
2019-03-11T18:36:35.387Z,19.27
2019-03-11T18:39:03.958Z,24.70
2019-03-11T18:41:32.288Z,26.05
2019-03-11T18:43:58.811Z,16.80
2019-03-11T18:46:25.290Z,14.45
2019-03-11T18:48:51.888Z,14.63
2019-03-11T18:51:18.386Z,15.38
2019-03-11T18:53:44.897Z,12.65
2019-03-11T18:56:11.346Z,12.35
2019-03-11T18:58:37.914Z,13.60
2019-03-11T19:01:04.691Z,10.13
2019-03-11T19:03:31.278Z,6.65
2019-03-11T19:05:57.850Z,11.00
2019-03-11T19:08:24.725Z,11.88
2019-03-11T19:10:51.323Z,13.83
2019-03-11T19:13:18.367Z,28.10
2019-03-11T19:15:44.885Z,12.35
2019-03-11T19:18:11.437Z,12.45
2019-03-11T19:20:38.087Z,16.30
2019-03-11T19:23:05.228Z,19.25
2019-03-11T19:25:32.100Z,13.20
2019-03-11T19:27:58.687Z,15.68
2019-03-11T19:30:26.203Z,30.35
2019-03-11T19:32:52.867Z,37.00
2019-03-11T19:35:19.874Z,28.02
2019-03-11T19:37:46.984Z,22.07
2019-03-11T19:40:15.983Z,25.12
2019-03-11T19:42:42.789Z,35.75
2019-03-11T19:45:12.187Z,47.08
2019-03-11T19:47:38.779Z,38.42
2019-03-11T19:50:08.622Z,25.85
2019-03-11T19:52:35.225Z,19.17
2019-03-11T19:55:04.083Z,65.62
2019-03-11T19:57:31.972Z,16.30
2019-03-11T19:59:58.496Z,15.63
2019-03-11T20:02:25.013Z,11.18
2019-03-11T20:04:51.589Z,6.95
2019-03-11T20:07:18.209Z,8.18
2019-03-11T20:09:44.818Z,8.13
2019-03-11T20:12:11.540Z,8.93
2019-03-11T20:14:38.126Z,10.13
2019-03-11T20:17:04.814Z,14.15
2019-03-11T20:19:31.512Z,14.30
2019-03-11T20:21:58.138Z,14.83
2019-03-11T20:24:24.688Z,13.08
2019-03-11T20:26:51.286Z,16.73
2019-03-11T20:29:17.978Z,14.58
2019-03-11T20:31:44.599Z,13.60
2019-03-11T20:34:11.184Z,13.28
2019-03-11T20:36:37.871Z,15.60
2019-03-11T20:39:05.966Z,14.98
2019-03-11T20:41:34.350Z,22.32
2019-03-11T20:44:00.901Z,14.55
2019-03-11T20:46:27.656Z,14.35
2019-03-11T20:48:54.092Z,14.87
2019-03-11T20:51:20.656Z,15.70
2019-03-11T20:53:47.296Z,15.05
2019-03-11T20:56:18.613Z,14.40
2019-03-11T21:01:41.714Z,27.93
2019-03-11T21:04:10.035Z,29.55
2019-03-11T21:06:48.801Z,18.70
2019-03-11T21:09:16.761Z,15.00
2019-03-11T21:11:48.220Z,15.10
2019-03-11T21:14:15.182Z,16.65
2019-03-11T21:16:45.026Z,19.75
2019-03-11T21:19:13.274Z,17.80
2019-03-11T21:21:48.951Z,19.73
2019-03-11T21:24:16.814Z,14.03
2019-03-11T21:26:49.142Z,15.43
2019-03-11T21:29:16.275Z,15.65
2019-03-11T21:31:43.309Z,15.13
2019-03-11T21:34:10.278Z,15.38
2019-03-11T21:36:36.834Z,15.18
2019-03-11T21:39:05.012Z,14.87
2019-03-11T21:41:33.347Z,15.18
2019-03-11T21:43:59.846Z,15.95
2019-03-11T21:46:26.297Z,16.45
2019-03-11T21:48:52.787Z,45.05
2019-03-11T21:51:19.357Z,16.60
2019-03-11T21:53:45.871Z,18.50
2019-03-11T21:56:12.311Z,16.17
2019-03-11T21:58:38.878Z,16.80
2019-03-11T22:01:05.405Z,16.20
2019-03-11T22:03:31.865Z,16.02
2019-03-11T22:05:58.432Z,16.27
2019-03-11T22:08:24.914Z,16.48
2019-03-11T22:10:51.338Z,15.55
2019-03-11T22:13:17.791Z,15.58
2019-03-11T22:15:44.238Z,17.15
2019-03-11T22:18:10.704Z,15.72
2019-03-11T22:20:37.184Z,14.38
2019-03-11T22:23:03.652Z,14.35
2019-03-11T22:25:30.106Z,13.38
2019-03-11T22:27:56.698Z,15.72
2019-03-11T22:30:23.761Z,16.90
2019-03-11T22:32:50.398Z,15.68
2019-03-11T22:35:17.040Z,17.48
2019-03-11T22:37:43.689Z,15.38
2019-03-11T22:40:11.819Z,13.98
2019-03-11T22:42:38.346Z,16.35
2019-03-11T22:45:10.556Z,15.78
2019-03-11T22:47:37.095Z,12.68
2019-03-11T22:50:05.767Z,16.30
2019-03-11T22:52:32.182Z,18.87
2019-03-11T22:54:58.598Z,16.60
2019-03-11T22:57:25.036Z,19.50
2019-03-11T22:59:51.472Z,16.17
2019-03-11T23:02:19.338Z,16.65
2019-03-11T23:04:45.874Z,17.37
2019-03-11T23:07:12.354Z,20.85
2019-03-11T23:09:38.793Z,16.90
2019-03-11T23:12:05.455Z,18.20
2019-03-11T23:14:31.893Z,21.70
2019-03-11T23:16:58.342Z,25.85
2019-03-11T23:19:24.895Z,26.93
2019-03-11T23:21:51.342Z,27.40
2019-03-11T23:24:17.789Z,26.10
2019-03-11T23:26:44.338Z,30.15
2019-03-11T23:29:11.894Z,28.02
2019-03-11T23:31:38.494Z,25.23
2019-03-11T23:34:04.987Z,26.00
2019-03-11T23:36:31.464Z,23.40
2019-03-11T23:38:57.953Z,22.75
2019-03-11T23:41:24.592Z,24.40
2019-03-11T23:43:51.234Z,16.73
2019-03-11T23:46:17.669Z,16.65
2019-03-11T23:48:44.104Z,17.50
2019-03-11T23:51:10.535Z,29.55
2019-03-11T23:53:37.000Z,19.75
2019-03-11T23:56:03.581Z,19.98
2019-03-11T23:58:30.034Z,20.12
